Airport View

Enter AWOS ICAO identifier for current METAR.

ex. KFNL

KARM 261135Z AUTO 09005KT 10SM CLR 24/23 A3004 RMK AO2 T02430225

26 Jun 2019 11:48

Frequency: 118.475

Phone: 979-532-2791

Other Area AWOS: KELA - KBYY - K66R - KPSX

TAF AMD KSGR 260943Z 2610/2706 00000KT P6SM BKN130 FM261300 12006KT P6SM FEW030 OVC250 FM261800 13008KT P6SM VCTS SCT035CB BKN130 FM262200 12007KT P6SM FEW040 BKN120